sensor_id;sensor_type;location;lat;lon;timestamp;P1;durP1;ratioP1;P2;durP2;ratioP2
76597;SDS011;65486;53.144;18.134;2023-02-02T00:01:41;7.70;;;2.30;;
76597;SDS011;65486;53.144;18.134;2023-02-02T00:04:18;10.50;;;3.30;;
76597;SDS011;65486;53.144;18.134;2023-02-02T00:06:47;12.50;;;2.40;;
76597;SDS011;65486;53.144;18.134;2023-02-02T00:09:17;12.80;;;3.10;;
76597;SDS011;65486;53.144;18.134;2023-02-02T00:11:46;8.20;;;2.30;;
76597;SDS011;65486;53.144;18.134;2023-02-02T00:14:13;12.90;;;2.20;;
76597;SDS011;65486;53.144;18.134;2023-02-02T00:16:42;9.10;;;2.00;;
76597;SDS011;65486;53.144;18.134;2023-02-02T00:19:20;11.40;;;1.90;;
76597;SDS011;65486;53.144;18.134;2023-02-02T00:21:53;10.60;;;2.00;;
76597;SDS011;65486;53.144;18.134;2023-02-02T00:24:20;9.70;;;1.60;;
76597;SDS011;65486;53.144;18.134;2023-02-02T00:26:51;12.00;;;2.40;;
76597;SDS011;65486;53.144;18.134;2023-02-02T00:29:24;11.20;;;2.60;;
76597;SDS011;65486;53.144;18.134;2023-02-02T00:31:53;2.90;;;0.60;;
76597;SDS011;65486;53.144;18.134;2023-02-02T00:34:19;10.10;;;2.00;;
76597;SDS011;65486;53.144;18.134;2023-02-02T00:36:47;7.30;;;1.30;;
76597;SDS011;65486;53.144;18.134;2023-02-02T00:39:18;7.60;;;2.00;;
76597;SDS011;65486;53.144;18.134;2023-02-02T00:41:47;11.30;;;1.90;;
76597;SDS011;65486;53.144;18.134;2023-02-02T00:44:13;8.30;;;1.80;;
76597;SDS011;65486;53.144;18.134;2023-02-02T00:46:59;11.50;;;1.60;;
76597;SDS011;65486;53.144;18.134;2023-02-02T00:49:26;12.90;;;2.40;;
76597;SDS011;65486;53.144;18.134;2023-02-02T00:51:53;12.10;;;1.80;;
76597;SDS011;65486;53.144;18.134;2023-02-02T00:54:20;13.30;;;2.10;;
76597;SDS011;65486;53.144;18.134;2023-02-02T00:56:47;11.30;;;1.60;;
76597;SDS011;65486;53.144;18.134;2023-02-02T00:59:14;15.20;;;2.50;;
76597;SDS011;65486;53.144;18.134;2023-02-02T01:01:40;8.00;;;1.60;;
76597;SDS011;65486;53.144;18.134;2023-02-02T01:04:06;11.90;;;2.30;;
76597;SDS011;65486;53.144;18.134;2023-02-02T01:06:32;8.50;;;1.80;;
76597;SDS011;65486;53.144;18.134;2023-02-02T01:08:59;8.90;;;1.90;;
76597;SDS011;65486;53.144;18.134;2023-02-02T01:11:25;9.40;;;1.60;;
76597;SDS011;65486;53.144;18.134;2023-02-02T01:13:52;16.60;;;2.50;;
76597;SDS011;65486;53.144;18.134;2023-02-02T01:16:19;13.80;;;2.20;;
76597;SDS011;65486;53.144;18.134;2023-02-02T01:18:49;8.70;;;1.70;;
76597;SDS011;65486;53.144;18.134;2023-02-02T01:21:16;8.00;;;1.70;;
76597;SDS011;65486;53.144;18.134;2023-02-02T01:23:42;12.10;;;1.80;;
76597;SDS011;65486;53.144;18.134;2023-02-02T01:26:10;15.90;;;2.00;;
76597;SDS011;65486;53.144;18.134;2023-02-02T01:28:40;12.60;;;2.40;;
76597;SDS011;65486;53.144;18.134;2023-02-02T01:31:09;11.70;;;2.40;;
76597;SDS011;65486;53.144;18.134;2023-02-02T01:33:39;10.80;;;2.20;;
76597;SDS011;65486;53.144;18.134;2023-02-02T01:36:07;15.90;;;2.50;;
76597;SDS011;65486;53.144;18.134;2023-02-02T01:38:37;13.20;;;2.10;;
76597;SDS011;65486;53.144;18.134;2023-02-02T01:41:04;13.70;;;2.00;;
76597;SDS011;65486;53.144;18.134;2023-02-02T01:46:12;10.00;;;1.70;;
76597;SDS011;65486;53.144;18.134;2023-02-02T01:51:20;9.60;;;1.70;;
76597;SDS011;65486;53.144;18.134;2023-02-02T01:53:50;10.40;;;2.20;;
76597;SDS011;65486;53.144;18.134;2023-02-02T01:56:27;12.20;;;2.10;;
76597;SDS011;65486;53.144;18.134;2023-02-02T01:59:01;11.70;;;1.80;;
76597;SDS011;65486;53.144;18.134;2023-02-02T02:01:28;11.40;;;2.20;;
76597;SDS011;65486;53.144;18.134;2023-02-02T02:03:54;13.50;;;2.20;;
76597;SDS011;65486;53.144;18.134;2023-02-02T02:06:22;14.60;;;2.40;;
76597;SDS011;65486;53.144;18.134;2023-02-02T02:11:19;12.30;;;1.70;;
76597;SDS011;65486;53.144;18.134;2023-02-02T02:13:47;14.50;;;2.00;;
76597;SDS011;65486;53.144;18.134;2023-02-02T02:36:55;11.80;;;2.10;;
76597;SDS011;65486;53.144;18.134;2023-02-02T02:39:38;11.40;;;1.70;;
76597;SDS011;65486;53.144;18.134;2023-02-02T02:42:13;12.10;;;1.50;;
76597;SDS011;65486;53.144;18.134;2023-02-02T02:44:44;14.10;;;1.60;;
76597;SDS011;65486;53.144;18.134;2023-02-02T02:47:13;14.80;;;1.90;;
76597;SDS011;65486;53.144;18.134;2023-02-02T02:49:44;9.70;;;1.50;;
76597;SDS011;65486;53.144;18.134;2023-02-02T02:52:12;15.10;;;1.70;;
76597;SDS011;65486;53.144;18.134;2023-02-02T02:54:49;12.70;;;2.20;;
76597;SDS011;65486;53.144;18.134;2023-02-02T03:03:18;9.70;;;1.80;;
76597;SDS011;65486;53.144;18.134;2023-02-02T03:10:57;8.20;;;1.50;;
76597;SDS011;65486;53.144;18.134;2023-02-02T03:13:27;5.60;;;1.50;;
76597;SDS011;65486;53.144;18.134;2023-02-02T03:15:56;9.70;;;1.60;;
76597;SDS011;65486;53.144;18.134;2023-02-02T03:18:23;9.10;;;1.50;;
76597;SDS011;65486;53.144;18.134;2023-02-02T03:20:55;15.20;;;1.70;;
76597;SDS011;65486;53.144;18.134;2023-02-02T03:23:21;7.60;;;1.80;;
76597;SDS011;65486;53.144;18.134;2023-02-02T03:25:50;7.60;;;1.30;;
76597;SDS011;65486;53.144;18.134;2023-02-02T03:28:16;8.40;;;1.00;;
76597;SDS011;65486;53.144;18.134;2023-02-02T03:30:44;9.60;;;1.20;;
76597;SDS011;65486;53.144;18.134;2023-02-02T03:33:12;8.60;;;1.70;;
76597;SDS011;65486;53.144;18.134;2023-02-02T03:35:40;6.40;;;1.10;;
76597;SDS011;65486;53.144;18.134;2023-02-02T03:38:06;8.50;;;1.60;;
76597;SDS011;65486;53.144;18.134;2023-02-02T03:40:33;6.90;;;1.50;;
76597;SDS011;65486;53.144;18.134;2023-02-02T03:43:00;10.50;;;1.60;;
76597;SDS011;65486;53.144;18.134;2023-02-02T03:45:26;12.20;;;1.60;;
76597;SDS011;65486;53.144;18.134;2023-02-02T03:47:53;14.00;;;1.70;;
76597;SDS011;65486;53.144;18.134;2023-02-02T03:50:19;10.10;;;1.70;;
76597;SDS011;65486;53.144;18.134;2023-02-02T03:52:45;6.20;;;1.30;;
76597;SDS011;65486;53.144;18.134;2023-02-02T03:55:11;5.00;;;0.90;;
76597;SDS011;65486;53.144;18.134;2023-02-02T03:57:39;7.50;;;1.50;;
76597;SDS011;65486;53.144;18.134;2023-02-02T04:00:05;7.40;;;1.40;;
76597;SDS011;65486;53.144;18.134;2023-02-02T04:02:38;3.50;;;0.60;;
76597;SDS011;65486;53.144;18.134;2023-02-02T04:05:05;7.10;;;1.10;;
76597;SDS011;65486;53.144;18.134;2023-02-02T04:07:31;5.00;;;1.00;;
76597;SDS011;65486;53.144;18.134;2023-02-02T04:09:58;4.60;;;0.90;;
76597;SDS011;65486;53.144;18.134;2023-02-02T04:12:24;6.10;;;1.30;;
76597;SDS011;65486;53.144;18.134;2023-02-02T04:14:50;4.10;;;0.90;;
76597;SDS011;65486;53.144;18.134;2023-02-02T04:17:17;7.10;;;1.20;;
76597;SDS011;65486;53.144;18.134;2023-02-02T04:19:43;8.10;;;1.40;;
76597;SDS011;65486;53.144;18.134;2023-02-02T04:22:09;5.80;;;1.00;;
76597;SDS011;65486;53.144;18.134;2023-02-02T04:24:35;3.80;;;0.90;;
76597;SDS011;65486;53.144;18.134;2023-02-02T04:27:01;3.70;;;0.70;;
76597;SDS011;65486;53.144;18.134;2023-02-02T04:29:28;4.70;;;0.90;;
76597;SDS011;65486;53.144;18.134;2023-02-02T04:31:54;4.40;;;1.10;;
76597;SDS011;65486;53.144;18.134;2023-02-02T04:34:20;5.60;;;1.70;;
76597;SDS011;65486;53.144;18.134;2023-02-02T04:36:47;3.30;;;1.10;;
76597;SDS011;65486;53.144;18.134;2023-02-02T04:39:13;4.90;;;1.00;;
76597;SDS011;65486;53.144;18.134;2023-02-02T04:41:39;3.60;;;0.90;;
76597;SDS011;65486;53.144;18.134;2023-02-02T04:44:09;3.40;;;0.90;;
76597;SDS011;65486;53.144;18.134;2023-02-02T04:46:38;5.60;;;1.40;;
76597;SDS011;65486;53.144;18.134;2023-02-02T04:49:05;4.20;;;1.10;;
76597;SDS011;65486;53.144;18.134;2023-02-02T04:51:32;4.60;;;1.30;;
76597;SDS011;65486;53.144;18.134;2023-02-02T04:53:59;4.20;;;1.30;;
76597;SDS011;65486;53.144;18.134;2023-02-02T04:56:26;4.10;;;1.60;;
76597;SDS011;65486;53.144;18.134;2023-02-02T04:58:53;10.50;;;3.00;;
76597;SDS011;65486;53.144;18.134;2023-02-02T05:01:23;9.80;;;3.10;;
76597;SDS011;65486;53.144;18.134;2023-02-02T05:03:49;11.10;;;3.80;;
76597;SDS011;65486;53.144;18.134;2023-02-02T05:06:16;6.60;;;2.40;;
76597;SDS011;65486;53.144;18.134;2023-02-02T05:08:44;11.30;;;3.20;;
76597;SDS011;65486;53.144;18.134;2023-02-02T05:11:14;41.00;;;13.00;;
76597;SDS011;65486;53.144;18.134;2023-02-02T05:13:46;29.60;;;8.40;;
76597;SDS011;65486;53.144;18.134;2023-02-02T05:16:13;16.40;;;5.20;;
76597;SDS011;65486;53.144;18.134;2023-02-02T05:18:40;13.40;;;4.40;;
76597;SDS011;65486;53.144;18.134;2023-02-02T05:21:09;19.90;;;5.80;;
76597;SDS011;65486;53.144;18.134;2023-02-02T05:23:35;8.20;;;2.40;;
76597;SDS011;65486;53.144;18.134;2023-02-02T05:26:01;10.60;;;3.10;;
76597;SDS011;65486;53.144;18.134;2023-02-02T05:28:27;9.80;;;3.20;;
76597;SDS011;65486;53.144;18.134;2023-02-02T05:30:54;15.40;;;5.20;;
76597;SDS011;65486;53.144;18.134;2023-02-02T05:33:20;12.80;;;3.40;;
76597;SDS011;65486;53.144;18.134;2023-02-02T05:35:47;8.40;;;3.00;;
76597;SDS011;65486;53.144;18.134;2023-02-02T05:38:14;7.70;;;3.30;;
76597;SDS011;65486;53.144;18.134;2023-02-02T05:40:41;7.20;;;3.10;;
76597;SDS011;65486;53.144;18.134;2023-02-02T05:43:08;7.00;;;3.40;;
76597;SDS011;65486;53.144;18.134;2023-02-02T05:45:34;7.40;;;2.90;;
76597;SDS011;65486;53.144;18.134;2023-02-02T05:48:00;7.00;;;3.00;;
76597;SDS011;65486;53.144;18.134;2023-02-02T05:50:27;4.40;;;2.30;;
76597;SDS011;65486;53.144;18.134;2023-02-02T05:53:00;9.50;;;3.20;;
76597;SDS011;65486;53.144;18.134;2023-02-02T05:55:27;5.20;;;2.40;;
76597;SDS011;65486;53.144;18.134;2023-02-02T05:57:53;6.70;;;2.50;;
76597;SDS011;65486;53.144;18.134;2023-02-02T06:00:19;5.90;;;2.80;;
76597;SDS011;65486;53.144;18.134;2023-02-02T06:02:46;4.80;;;1.60;;
76597;SDS011;65486;53.144;18.134;2023-02-02T06:05:12;5.00;;;2.10;;
76597;SDS011;65486;53.144;18.134;2023-02-02T06:07:40;6.00;;;1.70;;
76597;SDS011;65486;53.144;18.134;2023-02-02T06:10:07;6.30;;;2.60;;
76597;SDS011;65486;53.144;18.134;2023-02-02T06:12:34;4.80;;;1.60;;
76597;SDS011;65486;53.144;18.134;2023-02-02T06:15:02;6.80;;;2.40;;
76597;SDS011;65486;53.144;18.134;2023-02-02T06:17:29;5.30;;;2.50;;
76597;SDS011;65486;53.144;18.134;2023-02-02T06:19:55;4.30;;;2.00;;
76597;SDS011;65486;53.144;18.134;2023-02-02T06:22:22;3.70;;;1.50;;
76597;SDS011;65486;53.144;18.134;2023-02-02T06:24:51;4.60;;;2.10;;
76597;SDS011;65486;53.144;18.134;2023-02-02T06:27:19;4.10;;;1.50;;
76597;SDS011;65486;53.144;18.134;2023-02-02T06:29:45;4.30;;;1.70;;
76597;SDS011;65486;53.144;18.134;2023-02-02T06:32:12;4.30;;;1.30;;
76597;SDS011;65486;53.144;18.134;2023-02-02T06:34:38;3.30;;;1.50;;
76597;SDS011;65486;53.144;18.134;2023-02-02T06:37:05;3.50;;;1.50;;
76597;SDS011;65486;53.144;18.134;2023-02-02T06:39:33;2.80;;;1.60;;
76597;SDS011;65486;53.144;18.134;2023-02-02T06:42:03;5.50;;;1.60;;
76597;SDS011;65486;53.144;18.134;2023-02-02T06:44:32;6.30;;;1.50;;
76597;SDS011;65486;53.144;18.134;2023-02-02T06:46:59;3.50;;;1.50;;
76597;SDS011;65486;53.144;18.134;2023-02-02T06:49:27;4.60;;;1.70;;
76597;SDS011;65486;53.144;18.134;2023-02-02T06:51:53;4.50;;;1.50;;
76597;SDS011;65486;53.144;18.134;2023-02-02T06:54:19;5.30;;;1.90;;
76597;SDS011;65486;53.144;18.134;2023-02-02T06:56:46;5.80;;;1.80;;
76597;SDS011;65486;53.144;18.134;2023-02-02T06:59:12;5.20;;;2.00;;
76597;SDS011;65486;53.144;18.134;2023-02-02T07:01:39;4.80;;;1.70;;
76597;SDS011;65486;53.144;18.134;2023-02-02T07:04:06;3.00;;;1.40;;
76597;SDS011;65486;53.144;18.134;2023-02-02T07:06:32;5.10;;;2.00;;
76597;SDS011;65486;53.144;18.134;2023-02-02T07:09:08;3.80;;;2.00;;
76597;SDS011;65486;53.144;18.134;2023-02-02T07:11:36;3.20;;;1.30;;
76597;SDS011;65486;53.144;18.134;2023-02-02T07:14:03;4.30;;;1.70;;
76597;SDS011;65486;53.144;18.134;2023-02-02T07:16:31;4.10;;;1.70;;
76597;SDS011;65486;53.144;18.134;2023-02-02T07:18:57;3.40;;;1.70;;
76597;SDS011;65486;53.144;18.134;2023-02-02T07:21:24;4.70;;;1.60;;
76597;SDS011;65486;53.144;18.134;2023-02-02T07:24:01;3.30;;;1.20;;
76597;SDS011;65486;53.144;18.134;2023-02-02T07:26:32;3.00;;;1.10;;
76597;SDS011;65486;53.144;18.134;2023-02-02T07:29:08;4.40;;;1.40;;
76597;SDS011;65486;53.144;18.134;2023-02-02T07:31:40;3.10;;;1.20;;
76597;SDS011;65486;53.144;18.134;2023-02-02T07:34:07;3.30;;;1.30;;
76597;SDS011;65486;53.144;18.134;2023-02-02T07:36:36;4.60;;;1.70;;
76597;SDS011;65486;53.144;18.134;2023-02-02T07:39:04;3.70;;;1.40;;
76597;SDS011;65486;53.144;18.134;2023-02-02T07:41:33;4.20;;;1.70;;
76597;SDS011;65486;53.144;18.134;2023-02-02T07:44:01;3.40;;;1.10;;
76597;SDS011;65486;53.144;18.134;2023-02-02T07:46:30;5.40;;;1.80;;
76597;SDS011;65486;53.144;18.134;2023-02-02T07:49:00;4.20;;;1.60;;
76597;SDS011;65486;53.144;18.134;2023-02-02T07:51:27;3.50;;;1.30;;
76597;SDS011;65486;53.144;18.134;2023-02-02T07:53:55;3.60;;;1.70;;
76597;SDS011;65486;53.144;18.134;2023-02-02T07:56:25;5.00;;;2.00;;
76597;SDS011;65486;53.144;18.134;2023-02-02T07:58:55;5.00;;;1.80;;
76597;SDS011;65486;53.144;18.134;2023-02-02T08:01:24;4.50;;;1.10;;
76597;SDS011;65486;53.144;18.134;2023-02-02T08:03:53;3.10;;;1.60;;
76597;SDS011;65486;53.144;18.134;2023-02-02T08:06:21;4.70;;;1.70;;
76597;SDS011;65486;53.144;18.134;2023-02-02T08:08:58;5.20;;;2.50;;
76597;SDS011;65486;53.144;18.134;2023-02-02T08:11:27;6.50;;;2.10;;
76597;SDS011;65486;53.144;18.134;2023-02-02T08:14:41;4.20;;;1.80;;
76597;SDS011;65486;53.144;18.134;2023-02-02T08:17:31;4.80;;;1.40;;
76597;SDS011;65486;53.144;18.134;2023-02-02T08:19:57;4.40;;;1.20;;
76597;SDS011;65486;53.144;18.134;2023-02-02T08:22:24;4.90;;;1.70;;
76597;SDS011;65486;53.144;18.134;2023-02-02T08:24:52;5.30;;;1.80;;
76597;SDS011;65486;53.144;18.134;2023-02-02T08:27:18;2.90;;;1.20;;
76597;SDS011;65486;53.144;18.134;2023-02-02T08:29:45;4.30;;;1.50;;
76597;SDS011;65486;53.144;18.134;2023-02-02T08:32:11;3.50;;;1.20;;
76597;SDS011;65486;53.144;18.134;2023-02-02T08:34:38;4.50;;;1.70;;
76597;SDS011;65486;53.144;18.134;2023-02-02T08:37:06;4.50;;;1.60;;
76597;SDS011;65486;53.144;18.134;2023-02-02T08:39:33;4.20;;;1.40;;
76597;SDS011;65486;53.144;18.134;2023-02-02T08:42:01;5.00;;;1.30;;
76597;SDS011;65486;53.144;18.134;2023-02-02T08:44:28;5.40;;;2.10;;
76597;SDS011;65486;53.144;18.134;2023-02-02T08:46:55;3.40;;;1.40;;
76597;SDS011;65486;53.144;18.134;2023-02-02T08:49:22;3.30;;;1.40;;
76597;SDS011;65486;53.144;18.134;2023-02-02T08:51:49;4.20;;;1.40;;
76597;SDS011;65486;53.144;18.134;2023-02-02T08:54:16;2.80;;;1.00;;
76597;SDS011;65486;53.144;18.134;2023-02-02T08:56:43;2.40;;;0.90;;
76597;SDS011;65486;53.144;18.134;2023-02-02T08:59:09;4.80;;;1.50;;
76597;SDS011;65486;53.144;18.134;2023-02-02T09:01:37;2.80;;;1.20;;
76597;SDS011;65486;53.144;18.134;2023-02-02T09:04:05;3.90;;;1.20;;
76597;SDS011;65486;53.144;18.134;2023-02-02T09:06:39;3.30;;;1.30;;
76597;SDS011;65486;53.144;18.134;2023-02-02T09:09:07;3.30;;;1.30;;
76597;SDS011;65486;53.144;18.134;2023-02-02T09:11:37;2.60;;;1.30;;
76597;SDS011;65486;53.144;18.134;2023-02-02T09:14:04;3.30;;;0.90;;
76597;SDS011;65486;53.144;18.134;2023-02-02T09:16:33;2.10;;;0.80;;
76597;SDS011;65486;53.144;18.134;2023-02-02T09:19:01;2.60;;;0.70;;
76597;SDS011;65486;53.144;18.134;2023-02-02T09:21:27;2.30;;;0.70;;
76597;SDS011;65486;53.144;18.134;2023-02-02T09:23:54;1.90;;;0.80;;
76597;SDS011;65486;53.144;18.134;2023-02-02T09:26:26;3.50;;;1.00;;
76597;SDS011;65486;53.144;18.134;2023-02-02T09:28:59;4.10;;;1.10;;
76597;SDS011;65486;53.144;18.134;2023-02-02T09:31:30;3.20;;;0.80;;
76597;SDS011;65486;53.144;18.134;2023-02-02T09:34:02;3.30;;;1.20;;
76597;SDS011;65486;53.144;18.134;2023-02-02T09:36:32;4.60;;;1.00;;
76597;SDS011;65486;53.144;18.134;2023-02-02T09:38:59;2.60;;;0.70;;
76597;SDS011;65486;53.144;18.134;2023-02-02T09:50:51;2.50;;;1.00;;
76597;SDS011;65486;53.144;18.134;2023-02-02T09:56:21;1.50;;;0.80;;
76597;SDS011;65486;53.144;18.134;2023-02-02T09:59:00;2.30;;;0.50;;
76597;SDS011;65486;53.144;18.134;2023-02-02T10:01:33;2.70;;;0.70;;
76597;SDS011;65486;53.144;18.134;2023-02-02T10:04:13;2.40;;;0.80;;
76597;SDS011;65486;53.144;18.134;2023-02-02T10:06:57;2.30;;;0.80;;
76597;SDS011;65486;53.144;18.134;2023-02-02T10:09:51;3.90;;;0.40;;
76597;SDS011;65486;53.144;18.134;2023-02-02T10:20:40;1.80;;;0.70;;
76597;SDS011;65486;53.144;18.134;2023-02-02T10:23:35;1.60;;;0.60;;
76597;SDS011;65486;53.144;18.134;2023-02-02T10:29:27;1.20;;;0.40;;
76597;SDS011;65486;53.144;18.134;2023-02-02T10:49:33;2.10;;;0.70;;
76597;SDS011;65486;53.144;18.134;2023-02-02T10:54:49;2.50;;;0.60;;
76597;SDS011;65486;53.144;18.134;2023-02-02T10:57:25;1.80;;;0.80;;
76597;SDS011;65486;53.144;18.134;2023-02-02T11:02:51;2.70;;;0.90;;
76597;SDS011;65486;53.144;18.134;2023-02-02T11:11:30;1.50;;;0.60;;
76597;SDS011;65486;53.144;18.134;2023-02-02T11:16:41;2.90;;;0.80;;
76597;SDS011;65486;53.144;18.134;2023-02-02T11:21:54;1.50;;;0.40;;
76597;SDS011;65486;53.144;18.134;2023-02-02T11:24:46;2.90;;;0.60;;
76597;SDS011;65486;53.144;18.134;2023-02-02T11:27:33;2.70;;;0.60;;
76597;SDS011;65486;53.144;18.134;2023-02-02T11:30:35;1.30;;;0.70;;
76597;SDS011;65486;53.144;18.134;2023-02-02T11:33:25;3.80;;;0.60;;
76597;SDS011;65486;53.144;18.134;2023-02-02T11:35:57;2.20;;;0.60;;
76597;SDS011;65486;53.144;18.134;2023-02-02T11:38:26;1.90;;;0.60;;
76597;SDS011;65486;53.144;18.134;2023-02-02T11:41:04;2.10;;;0.60;;
76597;SDS011;65486;53.144;18.134;2023-02-02T11:43:49;2.90;;;0.70;;
76597;SDS011;65486;53.144;18.134;2023-02-02T11:46:25;1.40;;;0.70;;
76597;SDS011;65486;53.144;18.134;2023-02-02T11:48:58;1.30;;;0.30;;
76597;SDS011;65486;53.144;18.134;2023-02-02T11:51:29;1.80;;;0.80;;
76597;SDS011;65486;53.144;18.134;2023-02-02T11:56:35;4.80;;;1.20;;
76597;SDS011;65486;53.144;18.134;2023-02-02T11:59:03;18.00;;;6.80;;
76597;SDS011;65486;53.144;18.134;2023-02-02T12:01:31;4.10;;;1.50;;
76597;SDS011;65486;53.144;18.134;2023-02-02T12:04:02;7.50;;;2.90;;
76597;SDS011;65486;53.144;18.134;2023-02-02T12:06:48;4.50;;;1.70;;
76597;SDS011;65486;53.144;18.134;2023-02-02T12:09:16;4.80;;;1.80;;
76597;SDS011;65486;53.144;18.134;2023-02-02T12:21:52;2.00;;;0.90;;
76597;SDS011;65486;53.144;18.134;2023-02-02T12:24:26;4.40;;;1.40;;
76597;SDS011;65486;53.144;18.134;2023-02-02T12:32:45;2.10;;;0.80;;
76597;SDS011;65486;53.144;18.134;2023-02-02T12:47:23;3.70;;;1.00;;
76597;SDS011;65486;53.144;18.134;2023-02-02T12:58:43;7.10;;;1.70;;
76597;SDS011;65486;53.144;18.134;2023-02-02T13:12:12;5.80;;;1.30;;
76597;SDS011;65486;53.144;18.134;2023-02-02T13:17:17;3.30;;;1.30;;
76597;SDS011;65486;53.144;18.134;2023-02-02T13:19:53;3.50;;;1.40;;
76597;SDS011;65486;53.144;18.134;2023-02-02T13:22:50;4.70;;;1.40;;
76597;SDS011;65486;53.144;18.134;2023-02-02T13:25:22;3.90;;;1.70;;
76597;SDS011;65486;53.144;18.134;2023-02-02T13:27:53;3.70;;;1.20;;
76597;SDS011;65486;53.144;18.134;2023-02-02T13:30:33;3.60;;;1.80;;
76597;SDS011;65486;53.144;18.134;2023-02-02T13:33:11;4.70;;;1.90;;
76597;SDS011;65486;53.144;18.134;2023-02-02T13:35:45;4.20;;;1.80;;
76597;SDS011;65486;53.144;18.134;2023-02-02T13:38:24;3.40;;;1.20;;
76597;SDS011;65486;53.144;18.134;2023-02-02T13:40:56;2.70;;;0.90;;
76597;SDS011;65486;53.144;18.134;2023-02-02T13:46:15;2.30;;;0.90;;
76597;SDS011;65486;53.144;18.134;2023-02-02T13:49:11;1.50;;;0.70;;
76597;SDS011;65486;53.144;18.134;2023-02-02T13:52:03;1.40;;;0.60;;
76597;SDS011;65486;53.144;18.134;2023-02-02T13:55:23;1.90;;;0.60;;
76597;SDS011;65486;53.144;18.134;2023-02-02T14:00:59;3.10;;;0.90;;
76597;SDS011;65486;53.144;18.134;2023-02-02T14:03:37;1.80;;;0.60;;
76597;SDS011;65486;53.144;18.134;2023-02-02T14:06:20;1.40;;;0.50;;
76597;SDS011;65486;53.144;18.134;2023-02-02T14:11:27;2.40;;;0.50;;
76597;SDS011;65486;53.144;18.134;2023-02-02T14:14:14;1.40;;;0.60;;
76597;SDS011;65486;53.144;18.134;2023-02-02T14:22:40;1.60;;;0.50;;
76597;SDS011;65486;53.144;18.134;2023-02-02T14:28:03;1.00;;;0.60;;
76597;SDS011;65486;53.144;18.134;2023-02-02T14:30:40;2.10;;;0.60;;
76597;SDS011;65486;53.144;18.134;2023-02-02T14:36:11;1.90;;;0.60;;
76597;SDS011;65486;53.144;18.134;2023-02-02T14:38:55;2.10;;;0.60;;
76597;SDS011;65486;53.144;18.134;2023-02-02T14:41:41;1.70;;;0.70;;
76597;SDS011;65486;53.144;18.134;2023-02-02T14:58:54;4.50;;;1.30;;
76597;SDS011;65486;53.144;18.134;2023-02-02T15:01:34;2.30;;;0.50;;
76597;SDS011;65486;53.144;18.134;2023-02-02T15:04:25;2.90;;;0.70;;
76597;SDS011;65486;53.144;18.134;2023-02-02T15:06:53;40.30;;;10.20;;
76597;SDS011;65486;53.144;18.134;2023-02-02T15:14:35;4.10;;;1.30;;
76597;SDS011;65486;53.144;18.134;2023-02-02T15:17:22;10.70;;;3.70;;
76597;SDS011;65486;53.144;18.134;2023-02-02T15:20:31;3.30;;;1.10;;
76597;SDS011;65486;53.144;18.134;2023-02-02T15:23:34;1.70;;;0.60;;
76597;SDS011;65486;53.144;18.134;2023-02-02T15:26:22;2.70;;;0.80;;
76597;SDS011;65486;53.144;18.134;2023-02-02T15:29:06;1.10;;;0.50;;
76597;SDS011;65486;53.144;18.134;2023-02-02T15:32:14;2.70;;;0.60;;
76597;SDS011;65486;53.144;18.134;2023-02-02T15:34:52;2.40;;;0.60;;
76597;SDS011;65486;53.144;18.134;2023-02-02T15:37:35;4.50;;;0.80;;
76597;SDS011;65486;53.144;18.134;2023-02-02T15:40:12;1.60;;;0.70;;
76597;SDS011;65486;53.144;18.134;2023-02-02T15:42:45;3.40;;;0.60;;
76597;SDS011;65486;53.144;18.134;2023-02-02T15:48:38;1.50;;;0.70;;
76597;SDS011;65486;53.144;18.134;2023-02-02T15:50:44;1.90;;;0.80;;
76597;SDS011;65486;53.144;18.134;2023-02-02T15:58:51;2.10;;;0.70;;
76597;SDS011;65486;53.144;18.134;2023-02-02T16:01:24;3.40;;;0.70;;
76597;SDS011;65486;53.144;18.134;2023-02-02T16:06:48;2.40;;;0.70;;
76597;SDS011;65486;53.144;18.134;2023-02-02T16:09:22;1.40;;;0.50;;
76597;SDS011;65486;53.144;18.134;2023-02-02T16:12:04;1.80;;;0.90;;
76597;SDS011;65486;53.144;18.134;2023-02-02T16:14:37;1.90;;;0.70;;
76597;SDS011;65486;53.144;18.134;2023-02-02T16:17:10;1.90;;;0.70;;
76597;SDS011;65486;53.144;18.134;2023-02-02T16:20:00;2.60;;;0.80;;
76597;SDS011;65486;53.144;18.134;2023-02-02T16:22:35;1.60;;;0.50;;
76597;SDS011;65486;53.144;18.134;2023-02-02T16:25:05;2.40;;;0.70;;
76597;SDS011;65486;53.144;18.134;2023-02-02T16:27:35;3.00;;;1.00;;
76597;SDS011;65486;53.144;18.134;2023-02-02T16:30:06;4.30;;;1.60;;
76597;SDS011;65486;53.144;18.134;2023-02-02T16:32:39;3.00;;;0.80;;
76597;SDS011;65486;53.144;18.134;2023-02-02T16:35:29;5.10;;;1.30;;
76597;SDS011;65486;53.144;18.134;2023-02-02T16:40:47;29.50;;;6.60;;
76597;SDS011;65486;53.144;18.134;2023-02-02T16:43:25;39.60;;;7.10;;
76597;SDS011;65486;53.144;18.134;2023-02-02T16:45:54;39.20;;;6.90;;
76597;SDS011;65486;53.144;18.134;2023-02-02T16:48:39;27.80;;;5.10;;
76597;SDS011;65486;53.144;18.134;2023-02-02T16:53:43;16.80;;;3.90;;
76597;SDS011;65486;53.144;18.134;2023-02-02T16:56:29;62.00;;;12.30;;
76597;SDS011;65486;53.144;18.134;2023-02-02T16:59:01;19.30;;;3.30;;
76597;SDS011;65486;53.144;18.134;2023-02-02T17:01:33;10.40;;;2.20;;
76597;SDS011;65486;53.144;18.134;2023-02-02T17:04:04;7.00;;;1.30;;
76597;SDS011;65486;53.144;18.134;2023-02-02T17:06:45;11.60;;;2.90;;
76597;SDS011;65486;53.144;18.134;2023-02-02T17:09:18;9.40;;;1.70;;
76597;SDS011;65486;53.144;18.134;2023-02-02T17:11:58;8.80;;;2.70;;
76597;SDS011;65486;53.144;18.134;2023-02-02T17:14:50;3.90;;;0.80;;
76597;SDS011;65486;53.144;18.134;2023-02-02T17:17:26;6.40;;;1.40;;
76597;SDS011;65486;53.144;18.134;2023-02-02T17:19:53;4.00;;;1.40;;
76597;SDS011;65486;53.144;18.134;2023-02-02T17:22:21;2.80;;;0.90;;
76597;SDS011;65486;53.144;18.134;2023-02-02T17:24:50;2.20;;;0.70;;
76597;SDS011;65486;53.144;18.134;2023-02-02T17:27:25;4.00;;;1.20;;
76597;SDS011;65486;53.144;18.134;2023-02-02T17:29:55;3.70;;;0.80;;
76597;SDS011;65486;53.144;18.134;2023-02-02T17:32:29;4.20;;;1.50;;
76597;SDS011;65486;53.144;18.134;2023-02-02T17:34:55;2.90;;;0.90;;
76597;SDS011;65486;53.144;18.134;2023-02-02T17:37:23;4.40;;;1.10;;
76597;SDS011;65486;53.144;18.134;2023-02-02T17:39:51;3.30;;;1.10;;
76597;SDS011;65486;53.144;18.134;2023-02-02T17:42:25;3.70;;;1.10;;
76597;SDS011;65486;53.144;18.134;2023-02-02T17:44:55;4.40;;;1.10;;
76597;SDS011;65486;53.144;18.134;2023-02-02T17:47:22;4.20;;;1.50;;
76597;SDS011;65486;53.144;18.134;2023-02-02T17:49:48;5.10;;;1.10;;
76597;SDS011;65486;53.144;18.134;2023-02-02T17:52:14;6.10;;;1.20;;
76597;SDS011;65486;53.144;18.134;2023-02-02T17:54:40;3.70;;;1.10;;
76597;SDS011;65486;53.144;18.134;2023-02-02T17:57:12;6.60;;;1.80;;
76597;SDS011;65486;53.144;18.134;2023-02-02T17:59:42;5.60;;;1.60;;
76597;SDS011;65486;53.144;18.134;2023-02-02T18:02:11;5.80;;;2.20;;
76597;SDS011;65486;53.144;18.134;2023-02-02T18:04:41;29.80;;;9.70;;
76597;SDS011;65486;53.144;18.134;2023-02-02T18:07:08;11.20;;;4.10;;
76597;SDS011;65486;53.144;18.134;2023-02-02T18:09:35;5.10;;;2.00;;
76597;SDS011;65486;53.144;18.134;2023-02-02T18:12:01;6.70;;;2.20;;
76597;SDS011;65486;53.144;18.134;2023-02-02T18:14:29;4.70;;;1.70;;
76597;SDS011;65486;53.144;18.134;2023-02-02T18:16:56;7.00;;;2.10;;
76597;SDS011;65486;53.144;18.134;2023-02-02T18:19:34;7.70;;;2.10;;
76597;SDS011;65486;53.144;18.134;2023-02-02T18:22:04;7.30;;;2.10;;
76597;SDS011;65486;53.144;18.134;2023-02-02T18:24:33;5.80;;;2.20;;